Time;durP1;ratioP1;P1;durP2;ratioP2;P2;SDS_P1;SDS_P2;PMS_P1;PMS_P2;Temp;Humidity;BMP_temperature;BMP_pressure;BME280_temperature;BME280_humidity;BME280_pressure;Samples;Min_cycle;Max_cycle;Signal;HPM_P1;HPM_P2
2023/01/27 00:01:55;;;;;;;;;;;20.80;58.50;;;;;;1603820;72;771;-65
2023/01/27 00:03:57;;;;;;;;;;;20.80;58.50;;;;;;1600533;73;1135;-67
2023/01/27 00:06:00;;;;;;;;;;;20.80;58.40;;;;;;1600651;73;746;-67
2023/01/27 00:08:01;;;;;;;;;;;20.70;58.30;;;;;;1606055;73;1917;-66
2023/01/27 00:10:04;;;;;;;;;;;20.70;58.40;;;;;;1605202;73;1643;-67
2023/01/27 00:14:25;;;;;;;;;;;20.70;58.90;;;;;;1606006;72;1636;-67
2023/01/27 00:16:27;;;;;;;;;;;20.60;59.20;;;;;;1609871;73;794;-67
2023/01/27 00:18:29;;;;;;;;;;;20.50;59.30;;;;;;1593327;73;718;-67
2023/01/27 00:25:04;;;;;;;;;;;20.40;60.10;;;;;;1574095;72;222660;-58
2023/01/27 00:27:09;;;;;;;;;;;20.30;60.40;;;;;;1574000;75;1948;-58
2023/01/27 00:29:11;;;;;;;;;;;20.30;60.60;;;;;;1577230;75;1173;-58
2023/01/27 00:33:33;;;;;;;;;;;20.20;60.80;;;;;;1546043;76;1650;-58
2023/01/27 00:35:35;;;;;;;;;;;20.20;60.80;;;;;;1539594;76;768;-57
2023/01/27 00:37:37;;;;;;;;;;;20.10;60.70;;;;;;1547515;76;1521;-59
2023/01/27 00:39:39;;;;;;;;;;;20.20;60.80;;;;;;1541928;76;1232;-59
2023/01/27 00:41:41;;;;;;;;;;;20.20;60.80;;;;;;1550192;76;756;-59
2023/01/27 00:43:43;;;;;;;;;;;20.10;60.80;;;;;;1550897;76;782;-59
2023/01/27 00:45:49;;;;;;;;;;;20.10;60.80;;;;;;1538013;76;769;-58
2023/01/27 00:47:51;;;;;;;;;;;20.20;60.80;;;;;;1540117;76;1923;-59
2023/01/27 00:49:53;;;;;;;;;;;20.20;60.70;;;;;;1546190;76;1186;-58
2023/01/27 00:51:55;;;;;;;;;;;20.10;60.80;;;;;;1546400;76;1573;-58
2023/01/27 00:53:58;;;;;;;;;;;20.10;60.80;;;;;;1535201;76;730;-58
2023/01/27 00:56:00;;;;;;;;;;;20.20;60.50;;;;;;1542586;76;783;-58
2023/01/27 00:58:01;;;;;;;;;;;20.30;60.40;;;;;;1543223;76;756;-58
2023/01/27 01:00:05;;;;;;;;;;;20.30;60.20;;;;;;1544994;76;1180;-58
2023/01/27 01:02:07;;;;;;;;;;;20.40;60.10;;;;;;1542097;76;1373;-59
2023/01/27 01:04:09;;;;;;;;;;;20.40;60.20;;;;;;1543125;76;721;-59
2023/01/27 01:06:12;;;;;;;;;;;20.40;60.20;;;;;;1523184;76;1444;-58
2023/01/27 01:08:13;;;;;;;;;;;20.50;60.00;;;;;;1535396;76;1964;-58
2023/01/27 01:10:15;;;;;;;;;;;20.50;59.40;;;;;;1545224;76;1141;-58
2023/01/27 01:12:17;;;;;;;;;;;20.60;59.20;;;;;;1541432;76;847;-58
2023/01/27 01:14:19;;;;;;;;;;;20.60;59.00;;;;;;1547648;76;662;-60
2023/01/27 01:16:21;;;;;;;;;;;20.60;58.80;;;;;;1540839;76;723;-59
2023/01/27 01:18:23;;;;;;;;;;;20.70;58.80;;;;;;1540750;76;772;-58
2023/01/27 01:20:25;;;;;;;;;;;20.70;58.60;;;;;;1546184;76;1549;-60
2023/01/27 01:22:27;;;;;;;;;;;20.70;58.50;;;;;;1539793;76;762;-59
2023/01/27 01:24:29;;;;;;;;;;;20.70;58.30;;;;;;1532304;76;854;-58
2023/01/27 01:26:31;;;;;;;;;;;20.80;58.30;;;;;;1539676;76;704;-58
2023/01/27 01:28:33;;;;;;;;;;;20.80;58.10;;;;;;1535615;76;1946;-60
2023/01/27 01:30:35;;;;;;;;;;;20.80;57.60;;;;;;1537105;76;1143;-59
2023/01/27 01:32:36;;;;;;;;;;;20.80;57.60;;;;;;1527652;76;697;-60
2023/01/27 01:34:38;;;;;;;;;;;20.80;57.60;;;;;;1534536;76;1607;-59
2023/01/27 01:36:40;;;;;;;;;;;20.80;57.60;;;;;;1536517;76;744;-59
2023/01/27 01:38:42;;;;;;;;;;;20.80;57.60;;;;;;1539938;76;715;-59
2023/01/27 01:40:44;;;;;;;;;;;20.80;57.40;;;;;;1539949;76;1129;-59
2023/01/27 01:42:53;;;;;;;;;;;20.90;57.70;;;;;;1543995;76;822;-59
2023/01/27 01:45:12;;;;;;;;;;;20.80;57.50;;;;;;1547890;76;638;-58
2023/01/27 01:47:16;;;;;;;;;;;20.80;57.60;;;;;;1501264;77;1945;-59
2023/01/27 01:49:18;;;;;;;;;;;20.80;57.60;;;;;;1525870;76;1449;-60
2023/01/27 01:51:22;;;;;;;;;;;20.70;57.60;;;;;;1541184;76;773;-58
2023/01/27 01:53:28;;;;;;;;;;;20.80;58.10;;;;;;1534592;76;689;-58
2023/01/27 01:55:28;;;;;;;;;;;20.80;58.20;;;;;;1549136;76;1547;-59
2023/01/27 01:57:31;;;;;;;;;;;20.70;58.20;;;;;;1546054;76;716;-59
2023/01/27 01:59:35;;;;;;;;;;;20.70;58.20;;;;;;1549364;76;1178;-58
2023/01/27 02:01:37;;;;;;;;;;;20.70;58.20;;;;;;1537349;76;1607;-58
2023/01/27 02:03:39;;;;;;;;;;;20.80;58.20;;;;;;1547114;76;720;-60
2023/01/27 02:05:42;;;;;;;;;;;20.70;58.20;;;;;;1541770;76;662;-59
2023/01/27 02:07:45;;;;;;;;;;;20.70;58.50;;;;;;1545752;76;2070;-58
2023/01/27 02:09:47;;;;;;;;;;;20.80;58.30;;;;;;1546458;76;1190;-58
2023/01/27 02:11:49;;;;;;;;;;;20.70;58.20;;;;;;1544022;76;645;-58
2023/01/27 02:13:51;;;;;;;;;;;20.80;58.10;;;;;;1547797;76;783;-59
2023/01/27 02:15:54;;;;;;;;;;;20.80;58.10;;;;;;1543431;76;1231;-60
2023/01/27 02:17:57;;;;;;;;;;;20.70;58.10;;;;;;1548666;76;732;-59
2023/01/27 02:20:13;;;;;;;;;;;20.80;58.10;;;;;;1547405;76;1133;-58
2023/01/27 02:22:16;;;;;;;;;;;20.70;57.60;;;;;;1547998;76;711;-59
2023/01/27 02:24:18;;;;;;;;;;;20.70;57.60;;;;;;1543455;76;554;-60
2023/01/27 02:26:22;;;;;;;;;;;20.80;57.60;;;;;;1547896;76;805;-60
2023/01/27 02:28:25;;;;;;;;;;;20.80;57.60;;;;;;1540351;76;1937;-60
2023/01/27 02:30:27;;;;;;;;;;;20.70;58.10;;;;;;1545333;76;1338;-60
2023/01/27 02:32:29;;;;;;;;;;;20.80;57.60;;;;;;1545174;76;739;-62
2023/01/27 02:34:31;;;;;;;;;;;20.70;57.60;;;;;;1543545;76;744;-60
2023/01/27 02:36:34;;;;;;;;;;;20.80;58.10;;;;;;1549801;76;783;-61
2023/01/27 02:38:37;;;;;;;;;;;20.70;57.60;;;;;;1545390;76;849;-61
2023/01/27 02:40:39;;;;;;;;;;;20.80;57.60;;;;;;1543707;76;1246;-60
2023/01/27 02:42:41;;;;;;;;;;;20.80;57.50;;;;;;1546304;76;718;-60
2023/01/27 02:44:43;;;;;;;;;;;20.80;57.50;;;;;;1549754;76;1576;-61
2023/01/27 02:46:45;;;;;;;;;;;20.80;57.60;;;;;;1543723;76;725;-61
2023/01/27 02:48:47;;;;;;;;;;;20.80;57.40;;;;;;1544570;76;1935;-59
2023/01/27 02:50:49;;;;;;;;;;;20.80;57.40;;;;;;1546471;76;1129;-60
2023/01/27 02:52:51;;;;;;;;;;;20.70;57.40;;;;;;1545619;76;758;-61
2023/01/27 02:54:53;;;;;;;;;;;20.80;57.40;;;;;;1545753;76;747;-60
2023/01/27 02:56:55;;;;;;;;;;;20.80;57.40;;;;;;1546225;76;763;-62
2023/01/27 02:58:56;;;;;;;;;;;20.80;57.30;;;;;;1543732;76;1384;-60
2023/01/27 03:00:58;;;;;;;;;;;20.80;57.30;;;;;;1544267;76;1189;-61
2023/01/27 03:03:00;;;;;;;;;;;20.80;57.30;;;;;;1541000;76;609;-60
2023/01/27 03:05:02;;;;;;;;;;;20.80;57.30;;;;;;1545523;76;732;-60
2023/01/27 03:07:04;;;;;;;;;;;20.80;57.30;;;;;;1547651;76;819;-60
2023/01/27 03:09:06;;;;;;;;;;;20.80;57.30;;;;;;1547903;76;1946;-60
2023/01/27 03:11:08;;;;;;;;;;;20.80;57.40;;;;;;1548174;76;761;-59
2023/01/27 03:13:10;;;;;;;;;;;20.80;57.50;;;;;;1546976;76;1564;-60
2023/01/27 03:19:52;;;;;;;;;;;20.70;58.40;;;;;;1547104;76;1690;-60
2023/01/27 03:21:55;;;;;;;;;;;20.70;58.30;;;;;;1550821;76;791;-60
2023/01/27 03:23:56;;;;;;;;;;;20.60;58.20;;;;;;1534849;76;670;-61
2023/01/27 03:25:58;;;;;;;;;;;20.70;58.20;;;;;;1540284;76;1537;-60
2023/01/27 03:28:00;;;;;;;;;;;20.70;58.20;;;;;;1540136;76;1947;-61
2023/01/27 03:30:02;;;;;;;;;;;20.60;58.10;;;;;;1529093;76;1242;-60
2023/01/27 03:32:04;;;;;;;;;;;20.70;58.10;;;;;;1549309;76;782;-60
2023/01/27 03:34:06;;;;;;;;;;;20.70;58.10;;;;;;1544726;76;730;-61
2023/01/27 03:47:46;;;;;;;;;;;20.60;58.10;;;;;;1542811;76;951;-59
2023/01/27 03:49:48;;;;;;;;;;;20.60;58.20;;;;;;1539630;76;1935;-60
2023/01/27 03:51:50;;;;;;;;;;;20.60;58.30;;;;;;1546248;76;640;-60
2023/01/27 03:53:52;;;;;;;;;;;20.70;58.50;;;;;;1539252;76;1513;-60
2023/01/27 03:55:54;;;;;;;;;;;20.60;58.40;;;;;;1538210;76;826;-60
2023/01/27 03:57:56;;;;;;;;;;;20.60;58.40;;;;;;1532281;76;776;-59
2023/01/27 03:59:58;;;;;;;;;;;20.70;58.60;;;;;;1543693;76;1182;-60
2023/01/27 04:07:03;;;;;;;;;;;20.60;58.40;;;;;;1541751;76;1667;-61
2023/01/27 04:09:03;;;;;;;;;;;20.60;58.40;;;;;;1546593;76;1934;-61
2023/01/27 04:13:25;;;;;;;;;;;20.60;58.30;;;;;;1547135;76;1647;-60
2023/01/27 04:15:27;;;;;;;;;;;20.60;58.30;;;;;;1547984;76;744;-60
2023/01/27 04:17:29;;;;;;;;;;;20.60;58.30;;;;;;1540527;76;848;-60
2023/01/27 04:19:31;;;;;;;;;;;20.60;58.30;;;;;;1549561;76;1169;-61
2023/01/27 04:21:33;;;;;;;;;;;20.60;58.30;;;;;;1534830;76;800;-60
2023/01/27 04:23:35;;;;;;;;;;;20.60;58.30;;;;;;1538513;76;1682;-60
2023/01/27 04:25:37;;;;;;;;;;;20.60;58.30;;;;;;1540290;76;678;-61
2023/01/27 04:27:38;;;;;;;;;;;20.60;58.50;;;;;;1544551;76;738;-60
2023/01/27 04:29:40;;;;;;;;;;;20.60;58.60;;;;;;1535521;76;1935;-60
2023/01/27 04:31:42;;;;;;;;;;;20.60;58.40;;;;;;1543452;76;760;-60
2023/01/27 04:33:44;;;;;;;;;;;20.50;58.40;;;;;;1545966;76;719;-61
2023/01/27 04:35:46;;;;;;;;;;;20.60;58.30;;;;;;1547450;76;722;-60
2023/01/27 04:37:48;;;;;;;;;;;20.60;58.30;;;;;;1551013;76;1740;-60
2023/01/27 04:39:50;;;;;;;;;;;20.60;58.30;;;;;;1544587;76;1138;-60
2023/01/27 04:41:52;;;;;;;;;;;20.60;58.20;;;;;;1544998;76;652;-60
2023/01/27 04:43:54;;;;;;;;;;;20.60;58.20;;;;;;1547979;76;766;-59
2023/01/27 04:45:56;;;;;;;;;;;20.60;58.20;;;;;;1548871;76;759;-59
2023/01/27 04:47:57;;;;;;;;;;;20.60;58.10;;;;;;1543535;76;787;-61
2023/01/27 04:49:59;;;;;;;;;;;20.60;58.10;;;;;;1544843;76;1981;-60
2023/01/27 04:52:01;;;;;;;;;;;20.70;58.20;;;;;;1547946;76;779;-60
2023/01/27 04:54:04;;;;;;;;;;;20.60;58.20;;;;;;1549528;76;886;-60
2023/01/27 04:56:06;;;;;;;;;;;20.60;58.20;;;;;;1544997;76;922;-60
2023/01/27 04:58:09;;;;;;;;;;;20.60;58.20;;;;;;1548150;76;718;-59
2023/01/27 05:00:12;;;;;;;;;;;20.50;58.90;;;;;;1544765;76;1134;-61
2023/01/27 05:02:13;;;;;;;;;;;20.60;58.50;;;;;;1543654;76;711;-59
2023/01/27 05:04:15;;;;;;;;;;;20.60;58.40;;;;;;1541197;76;1554;-59
2023/01/27 05:06:17;;;;;;;;;;;20.60;58.30;;;;;;1549352;75;863;-60
2023/01/27 05:08:19;;;;;;;;;;;20.60;58.20;;;;;;1541973;75;1943;-61
2023/01/27 05:10:21;;;;;;;;;;;20.60;58.20;;;;;;1548023;75;1161;-61
2023/01/27 05:12:23;;;;;;;;;;;20.60;58.20;;;;;;1542146;75;725;-60
2023/01/27 05:14:25;;;;;;;;;;;20.60;58.20;;;;;;1545998;75;757;-59
2023/01/27 05:16:27;;;;;;;;;;;20.60;58.20;;;;;;1552140;75;702;-60
2023/01/27 05:18:28;;;;;;;;;;;20.60;58.30;;;;;;1548986;75;1581;-60
2023/01/27 05:20:30;;;;;;;;;;;20.50;58.80;;;;;;1545609;76;1117;-60
2023/01/27 05:22:32;;;;;;;;;;;20.40;59.50;;;;;;1546770;76;794;-60
2023/01/27 05:24:34;;;;;;;;;;;20.50;59.50;;;;;;1544755;76;723;-60
2023/01/27 05:26:36;;;;;;;;;;;20.40;59.40;;;;;;1531812;76;731;-60
2023/01/27 05:28:38;;;;;;;;;;;20.50;59.20;;;;;;1548216;75;1920;-61
2023/01/27 05:30:40;;;;;;;;;;;20.50;59.10;;;;;;1542846;75;1138;-60
2023/01/27 05:32:42;;;;;;;;;;;20.50;59.00;;;;;;1548623;75;1476;-60
2023/01/27 05:34:44;;;;;;;;;;;20.50;58.90;;;;;;1543042;75;838;-60
2023/01/27 05:36:45;;;;;;;;;;;20.50;59.00;;;;;;1541528;75;780;-60
2023/01/27 05:38:47;;;;;;;;;;;20.50;58.80;;;;;;1553307;75;882;-60
2023/01/27 05:40:49;;;;;;;;;;;20.60;58.70;;;;;;1541762;76;1111;-60
2023/01/27 05:42:51;;;;;;;;;;;20.60;58.70;;;;;;1544527;76;804;-59
2023/01/27 05:44:53;;;;;;;;;;;20.60;58.60;;;;;;1547504;76;802;-59
2023/01/27 05:46:55;;;;;;;;;;;20.60;58.60;;;;;;1544514;75;1539;-60
2023/01/27 05:48:59;;;;;;;;;;;20.50;58.60;;;;;;1545934;76;1915;-60
2023/01/27 05:51:01;;;;;;;;;;;20.60;58.60;;;;;;1540840;75;1589;-60
2023/01/27 05:53:02;;;;;;;;;;;20.60;58.60;;;;;;1547791;75;737;-61
2023/01/27 05:55:05;;;;;;;;;;;20.60;58.60;;;;;;1546667;76;777;-60
2023/01/27 05:57:07;;;;;;;;;;;20.60;58.60;;;;;;1540756;76;686;-60
2023/01/27 05:59:09;;;;;;;;;;;20.50;58.70;;;;;;1530305;76;1179;-60
2023/01/27 06:01:18;;;;;;;;;;;20.50;58.70;;;;;;1543146;75;1472;-61
2023/01/27 06:03:20;;;;;;;;;;;20.50;58.80;;;;;;1546482;76;734;-60
2023/01/27 06:05:22;;;;;;;;;;;20.50;58.70;;;;;;1541574;75;745;-60
2023/01/27 06:07:23;;;;;;;;;;;20.50;58.80;;;;;;1549644;75;708;-59
2023/01/27 06:09:25;;;;;;;;;;;20.50;58.70;;;;;;1548402;75;1935;-59
2023/01/27 06:11:27;;;;;;;;;;;20.50;58.70;;;;;;1535131;76;781;-60
2023/01/27 06:13:29;;;;;;;;;;;20.40;58.90;;;;;;1543059;76;743;-61
2023/01/27 06:15:31;;;;;;;;;;;20.50;59.30;;;;;;1534544;76;1542;-61
2023/01/27 06:17:33;;;;;;;;;;;20.40;59.30;;;;;;1543557;76;733;-61
2023/01/27 06:19:35;;;;;;;;;;;20.40;59.20;;;;;;1550679;76;1270;-61
2023/01/27 06:21:37;;;;;;;;;;;20.50;59.00;;;;;;1540711;76;755;-61
2023/01/27 06:23:39;;;;;;;;;;;20.50;58.90;;;;;;1534961;76;735;-61
2023/01/27 06:25:42;;;;;;;;;;;20.60;58.70;;;;;;1526984;76;871;-61
2023/01/27 06:27:43;;;;;;;;;;;20.60;58.50;;;;;;1539170;75;830;-61
2023/01/27 06:29:45;;;;;;;;;;;20.70;58.50;;;;;;1537689;76;1975;-61
2023/01/27 06:31:47;;;;;;;;;;;20.70;58.40;;;;;;1546077;76;716;-61
2023/01/27 06:33:49;;;;;;;;;;;20.70;58.30;;;;;;1549701;75;749;-61
2023/01/27 06:35:51;;;;;;;;;;;20.70;58.10;;;;;;1541862;76;781;-61
2023/01/27 06:37:53;;;;;;;;;;;20.70;57.60;;;;;;1546705;75;789;-62
2023/01/27 06:39:55;;;;;;;;;;;20.70;57.50;;;;;;1541358;75;1139;-62
2023/01/27 06:41:57;;;;;;;;;;;20.70;57.50;;;;;;1539937;75;802;-63
2023/01/27 06:43:59;;;;;;;;;;;20.60;58.20;;;;;;1545542;75;1549;-61
2023/01/27 06:46:01;;;;;;;;;;;20.60;58.30;;;;;;1543216;75;789;-61
2023/01/27 06:48:03;;;;;;;;;;;20.50;58.50;;;;;;1544373;75;782;-60
2023/01/27 06:50:05;;;;;;;;;;;20.60;58.50;;;;;;1546157;75;1922;-61
2023/01/27 06:52:07;;;;;;;;;;;20.60;58.30;;;;;;1537099;75;719;-61
2023/01/27 06:54:09;;;;;;;;;;;20.60;58.20;;;;;;1546357;75;719;-61
2023/01/27 06:56:11;;;;;;;;;;;20.60;58.10;;;;;;1546731;75;708;-61
2023/01/27 06:58:13;;;;;;;;;;;20.60;57.50;;;;;;1543659;75;1387;-61
2023/01/27 07:00:15;;;;;;;;;;;20.50;57.40;;;;;;1534729;75;1198;-61
2023/01/27 07:02:17;;;;;;;;;;;20.60;57.50;;;;;;1543209;76;940;-61
2023/01/27 07:04:19;;;;;;;;;;;20.60;57.30;;;;;;1543594;76;710;-59
2023/01/27 07:06:21;;;;;;;;;;;20.60;57.10;;;;;;1537292;76;701;-59
2023/01/27 07:08:23;;;;;;;;;;;20.60;57.00;;;;;;1540716;76;750;-59
2023/01/27 07:10:25;;;;;;;;;;;20.70;57.10;;;;;;1537529;76;1955;-59
2023/01/27 07:12:27;;;;;;;;;;;20.70;56.90;;;;;;1547716;76;1638;-59
2023/01/27 07:14:29;;;;;;;;;;;20.70;56.90;;;;;;1547828;76;766;-64
2023/01/27 07:16:31;;;;;;;;;;;20.60;56.80;;;;;;1542554;75;772;-64
2023/01/27 07:18:32;;;;;;;;;;;20.70;56.80;;;;;;1541417;75;766;-64
2023/01/27 07:20:34;;;;;;;;;;;20.60;56.70;;;;;;1550720;75;1153;-64
2023/01/27 07:22:36;;;;;;;;;;;20.70;56.70;;;;;;1541579;75;777;-64
2023/01/27 07:24:38;;;;;;;;;;;20.70;56.70;;;;;;1538985;76;1535;-63
2023/01/27 07:26:40;;;;;;;;;;;20.60;56.60;;;;;;1547578;76;758;-64
2023/01/27 07:28:42;;;;;;;;;;;20.60;56.60;;;;;;1544927;76;705;-60
2023/01/27 07:30:44;;;;;;;;;;;20.60;56.60;;;;;;1547616;76;1955;-62
2023/01/27 07:32:46;;;;;;;;;;;20.60;56.60;;;;;;1548959;76;684;-63
2023/01/27 07:34:47;;;;;;;;;;;20.60;57.50;;;;;;1536325;76;675;-63
2023/01/27 07:36:49;;;;;;;;;;;20.50;58.50;;;;;;1539426;76;678;-62
2023/01/27 07:38:51;;;;;;;;;;;20.50;59.30;;;;;;1541087;75;1348;-61
2023/01/27 07:40:53;;;;;;;;;;;20.50;59.30;;;;;;1536045;76;1084;-62
2023/01/27 07:42:57;;;;;;;;;;;20.60;59.40;;;;;;1547558;76;797;-63
2023/01/27 07:44:58;;;;;;;;;;;20.60;59.40;;;;;;1531254;76;1805;-64
2023/01/27 07:47:00;;;;;;;;;;;20.60;59.70;;;;;;1532285;75;610;-64
2023/01/27 07:49:02;;;;;;;;;;;20.50;61.20;;;;;;1543532;75;1136;-62
2023/01/27 07:51:04;;;;;;;;;;;20.50;61.30;;;;;;1541841;76;1948;-62
2023/01/27 07:53:06;;;;;;;;;;;20.60;60.80;;;;;;1540079;76;1573;-62
2023/01/27 07:55:08;;;;;;;;;;;20.50;60.40;;;;;;1533926;75;785;-62
2023/01/27 07:57:10;;;;;;;;;;;20.60;60.20;;;;;;1546313;75;845;-62
2023/01/27 07:59:12;;;;;;;;;;;20.60;60.10;;;;;;1548891;75;1133;-59
2023/01/27 08:01:14;;;;;;;;;;;20.60;59.80;;;;;;1547382;75;812;-60
2023/01/27 08:03:22;;;;;;;;;;;20.60;59.80;;;;;;1548936;75;720;-58
2023/01/27 08:05:24;;;;;;;;;;;20.60;59.70;;;;;;1545471;75;748;-59
2023/01/27 08:07:26;;;;;;;;;;;20.60;59.60;;;;;;1546747;75;1548;-59
2023/01/27 08:09:28;;;;;;;;;;;20.70;59.60;;;;;;1547835;75;1934;-60
2023/01/27 08:11:30;;;;;;;;;;;20.70;59.60;;;;;;1545576;75;765;-59
2023/01/27 08:13:32;;;;;;;;;;;20.70;59.40;;;;;;1547240;75;836;-60
2023/01/27 08:15:34;;;;;;;;;;;20.60;59.40;;;;;;1549731;75;710;-59
2023/01/27 08:17:35;;;;;;;;;;;20.60;59.30;;;;;;1547877;75;778;-60
2023/01/27 08:19:37;;;;;;;;;;;20.70;59.40;;;;;;1549573;75;1125;-59
2023/01/27 08:21:39;;;;;;;;;;;20.70;59.40;;;;;;1546729;75;1535;-59
2023/01/27 08:23:41;;;;;;;;;;;20.60;59.30;;;;;;1546472;75;760;-60
2023/01/27 08:25:45;;;;;;;;;;;20.70;59.40;;;;;;1550184;75;689;-59
2023/01/27 08:27:48;;;;;;;;;;;20.60;59.30;;;;;;1544080;76;1968;-59
2023/01/27 08:29:50;;;;;;;;;;;20.70;59.30;;;;;;1545317;75;2089;-59
2023/01/27 08:31:52;;;;;;;;;;;20.70;59.30;;;;;;1548523;75;739;-60
2023/01/27 08:33:54;;;;;;;;;;;20.60;59.20;;;;;;1545513;75;615;-59
2023/01/27 08:35:55;;;;;;;;;;;20.70;59.30;;;;;;1544857;75;1537;-59
2023/01/27 08:37:57;;;;;;;;;;;20.60;59.20;;;;;;1542330;75;743;-59
2023/01/27 08:39:59;;;;;;;;;;;20.60;59.10;;;;;;1549578;75;1141;-61
2023/01/27 08:42:01;;;;;;;;;;;20.70;59.20;;;;;;1549477;75;751;-60
2023/01/27 08:44:03;;;;;;;;;;;20.70;59.10;;;;;;1549736;75;718;-60
2023/01/27 08:46:05;;;;;;;;;;;20.70;59.10;;;;;;1549896;75;712;-60
2023/01/27 08:48:07;;;;;;;;;;;20.70;59.10;;;;;;1546137;76;841;-59
2023/01/27 08:50:10;;;;;;;;;;;20.70;59.10;;;;;;1541558;75;1946;-60
2023/01/27 08:52:12;;;;;;;;;;;20.70;59.10;;;;;;1544885;75;828;-59
2023/01/27 08:54:13;;;;;;;;;;;20.70;59.10;;;;;;1546658;75;721;-59
2023/01/27 08:56:15;;;;;;;;;;;20.60;59.00;;;;;;1548809;75;785;-60
2023/01/27 08:58:17;;;;;;;;;;;20.70;59.00;;;;;;1546154;75;820;-59
2023/01/27 09:00:19;;;;;;;;;;;20.70;59.00;;;;;;1547296;75;1181;-59
2023/01/27 09:02:23;;;;;;;;;;;20.70;59.00;;;;;;1540882;76;745;-62
2023/01/27 09:04:25;;;;;;;;;;;20.70;58.90;;;;;;1545437;76;1416;-61
2023/01/27 09:06:27;;;;;;;;;;;20.70;58.90;;;;;;1549237;75;712;-59
2023/01/27 09:08:28;;;;;;;;;;;20.60;58.80;;;;;;1549215;75;784;-60
2023/01/27 09:10:30;;;;;;;;;;;20.70;58.90;;;;;;1548491;75;1947;-60
2023/01/27 09:12:32;;;;;;;;;;;20.70;58.90;;;;;;1547134;75;720;-59
2023/01/27 09:14:34;;;;;;;;;;;20.60;58.80;;;;;;1543938;75;744;-60
2023/01/27 09:16:36;;;;;;;;;;;20.70;58.90;;;;;;1541524;75;705;-61
2023/01/27 09:18:38;;;;;;;;;;;20.60;58.80;;;;;;1548673;75;1547;-61
2023/01/27 09:20:40;;;;;;;;;;;20.70;58.80;;;;;;1547549;75;1138;-59
2023/01/27 09:22:42;;;;;;;;;;;20.70;58.80;;;;;;1542086;75;771;-59
2023/01/27 09:24:43;;;;;;;;;;;20.70;58.80;;;;;;1552352;75;726;-59
2023/01/27 09:26:45;;;;;;;;;;;20.70;58.70;;;;;;1545522;76;723;-60
2023/01/27 09:28:47;;;;;;;;;;;20.60;58.70;;;;;;1543335;75;614;-60
2023/01/27 09:30:49;;;;;;;;;;;20.60;58.70;;;;;;1549897;75;1955;-59
2023/01/27 09:32:51;;;;;;;;;;;20.70;58.70;;;;;;1544998;75;1549;-59
2023/01/27 09:34:53;;;;;;;;;;;20.70;58.70;;;;;;1547261;75;732;-60
2023/01/27 09:36:56;;;;;;;;;;;20.60;58.60;;;;;;1544824;75;739;-60
2023/01/27 09:38:59;;;;;;;;;;;20.60;58.60;;;;;;1542507;75;760;-60
2023/01/27 09:41:19;;;;;;;;;;;20.60;58.60;;;;;;1547368;75;1171;-60
2023/01/27 09:43:22;;;;;;;;;;;20.60;58.60;;;;;;1546999;75;705;-60
2023/01/27 09:45:32;;;;;;;;;;;20.60;58.60;;;;;;1545044;75;1530;-60
2023/01/27 09:47:45;;;;;;;;;;;20.60;58.60;;;;;;1545752;75;716;-60
2023/01/27 09:49:48;;;;;;;;;;;20.60;58.60;;;;;;1549555;75;1899;-60
2023/01/27 09:51:55;;;;;;;;;;;20.60;58.60;;;;;;1546731;75;1933;-59
2023/01/27 09:54:01;;;;;;;;;;;20.70;58.70;;;;;;1515239;75;1107;-59
2023/01/27 09:56:10;;;;;;;;;;;20.70;58.60;;;;;;1543899;75;716;-60
2023/01/27 09:58:26;;;;;;;;;;;20.70;58.60;;;;;;1547058;75;1948;-61
2023/01/27 10:00:30;;;;;;;;;;;20.60;58.50;;;;;;1546403;75;1564;-60
2023/01/27 10:02:33;;;;;;;;;;;20.70;58.60;;;;;;1549946;75;733;-58
2023/01/27 10:04:43;;;;;;;;;;;20.60;58.50;;;;;;1548912;75;1886;-60
2023/01/27 10:06:49;;;;;;;;;;;20.60;58.50;;;;;;1539772;75;712;-60
2023/01/27 10:08:56;;;;;;;;;;;20.60;58.50;;;;;;1548354;75;767;-60
2023/01/27 10:11:14;;;;;;;;;;;20.60;58.50;;;;;;1547289;75;1990;-60
2023/01/27 10:13:17;;;;;;;;;;;20.60;58.50;;;;;;1550936;75;1914;-60
2023/01/27 10:15:33;;;;;;;;;;;20.60;58.40;;;;;;1545464;75;1694;-60
2023/01/27 10:17:53;;;;;;;;;;;20.60;58.50;;;;;;1546609;76;701;-59
2023/01/27 10:20:03;;;;;;;;;;;20.60;58.50;;;;;;1549873;75;1134;-62
2023/01/27 10:22:06;;;;;;;;;;;20.60;58.50;;;;;;1551537;75;751;-61
2023/01/27 10:24:26;;;;;;;;;;;20.60;58.50;;;;;;1528792;76;1079;-61
2023/01/27 10:26:32;;;;;;;;;;;20.60;58.50;;;;;;1533672;76;741;-62
2023/01/27 10:28:34;;;;;;;;;;;20.60;58.50;;;;;;1539515;76;2154;-61
2023/01/27 10:30:36;;;;;;;;;;;20.60;58.50;;;;;;1544536;76;1941;-63
2023/01/27 10:32:40;;;;;;;;;;;20.60;58.50;;;;;;1540960;75;733;-63
2023/01/27 10:34:49;;;;;;;;;;;20.60;58.60;;;;;;1549807;75;1960;-63
2023/01/27 10:36:53;;;;;;;;;;;20.60;58.50;;;;;;1515858;75;1178;-63
2023/01/27 10:39:08;;;;;;;;;;;20.60;58.60;;;;;;1550270;75;1913;-63
2023/01/27 10:41:12;;;;;;;;;;;20.60;58.60;;;;;;1545829;75;758;-63
2023/01/27 10:43:32;;;;;;;;;;;20.60;58.50;;;;;;1548169;75;1940;-62
2023/01/27 10:45:37;;;;;;;;;;;20.60;58.60;;;;;;1547072;75;730;-63
2023/01/27 10:47:43;;;;;;;;;;;20.50;58.60;;;;;;1538291;75;762;-63
2023/01/27 10:49:53;;;;;;;;;;;20.50;58.50;;;;;;1548342;75;1144;-63
2023/01/27 10:51:57;;;;;;;;;;;20.60;58.60;;;;;;1545224;75;1932;-63
2023/01/27 10:54:09;;;;;;;;;;;20.60;58.50;;;;;;1545954;75;785;-63
2023/01/27 10:56:23;;;;;;;;;;;20.60;58.50;;;;;;1539034;75;1852;-63
2023/01/27 10:58:27;;;;;;;;;;;20.60;58.50;;;;;;1547263;75;1083;-67
2023/01/27 11:00:33;;;;;;;;;;;20.60;58.50;;;;;;1538135;75;1142;-63
2023/01/27 11:02:46;;;;;;;;;;;20.60;58.60;;;;;;1543987;75;744;-63
2023/01/27 11:04:48;;;;;;;;;;;20.60;58.60;;;;;;1542747;75;942;-63
2023/01/27 11:06:50;;;;;;;;;;;20.60;58.60;;;;;;1548449;75;804;-64
2023/01/27 11:08:53;;;;;;;;;;;20.60;58.60;;;;;;1546338;75;731;-63
2023/01/27 11:13:16;;;;;;;;;;;20.50;58.80;;;;;;1548024;75;737;-63
2023/01/27 11:15:34;;;;;;;;;;;20.50;58.90;;;;;;1545212;75;725;-63
2023/01/27 11:17:37;;;;;;;;;;;20.50;59.10;;;;;;1542376;75;522;-63
2023/01/27 11:19:46;;;;;;;;;;;20.50;59.60;;;;;;1546680;75;1134;-63
2023/01/27 11:21:48;;;;;;;;;;;20.40;60.00;;;;;;1540061;75;791;-63
2023/01/27 11:23:55;;;;;;;;;;;20.40;60.80;;;;;;1542642;75;1534;-63
2023/01/27 11:26:12;;;;;;;;;;;20.40;61.50;;;;;;1541325;76;1600;-63
2023/01/27 11:28:15;;;;;;;;;;;20.30;61.90;;;;;;1528053;75;771;-63
2023/01/27 11:30:19;;;;;;;;;;;20.40;62.60;;;;;;1545901;75;1165;-63
2023/01/27 11:32:22;;;;;;;;;;;20.40;63.30;;;;;;1550747;75;1946;-63
2023/01/27 11:34:26;;;;;;;;;;;20.40;63.70;;;;;;1549388;75;819;-63
2023/01/27 11:36:28;;;;;;;;;;;20.40;64.00;;;;;;1551842;75;699;-63
2023/01/27 11:38:30;;;;;;;;;;;20.40;63.90;;;;;;1549296;75;1568;-63
2023/01/27 11:40:33;;;;;;;;;;;20.40;64.00;;;;;;1549192;76;1165;-63
2023/01/27 11:42:35;;;;;;;;;;;20.40;64.30;;;;;;1536278;76;771;-63
2023/01/27 11:44:37;;;;;;;;;;;20.40;64.70;;;;;;1551728;76;607;-63
2023/01/27 11:46:38;;;;;;;;;;;20.40;64.80;;;;;;1535234;76;768;-63
2023/01/27 11:48:44;;;;;;;;;;;20.40;64.90;;;;;;1549503;75;707;-63
2023/01/27 11:50:46;;;;;;;;;;;20.40;64.80;;;;;;1543862;75;1955;-63
2023/01/27 11:52:49;;;;;;;;;;;20.50;64.50;;;;;;1544431;76;1530;-64
2023/01/27 11:54:53;;;;;;;;;;;20.40;64.50;;;;;;1549887;76;696;-63
2023/01/27 11:56:54;;;;;;;;;;;20.40;64.20;;;;;;1540927;76;763;-63
2023/01/27 11:59:01;;;;;;;;;;;20.40;64.00;;;;;;1546932;76;784;-63
2023/01/27 12:01:03;;;;;;;;;;;20.40;64.10;;;;;;1542213;75;748;-61
2023/01/27 12:03:07;;;;;;;;;;;20.50;64.00;;;;;;1537770;75;940;-61
2023/01/27 12:05:11;;;;;;;;;;;20.40;63.70;;;;;;1545612;75;652;-61
2023/01/27 12:07:14;;;;;;;;;;;20.50;63.70;;;;;;1549056;75;1484;-61
2023/01/27 12:09:32;;;;;;;;;;;20.40;63.60;;;;;;1538193;75;1793;-61
2023/01/27 12:11:34;;;;;;;;;;;20.50;63.60;;;;;;1541713;75;1988;-61
2023/01/27 12:13:36;;;;;;;;;;;20.50;63.50;;;;;;1545808;75;730;-60
2023/01/27 12:15:38;;;;;;;;;;;20.40;63.30;;;;;;1547585;75;791;-61
2023/01/27 12:17:40;;;;;;;;;;;20.50;63.40;;;;;;1541273;75;742;-60
2023/01/27 12:19:42;;;;;;;;;;;20.50;63.30;;;;;;1547151;76;1153;-60
2023/01/27 12:21:46;;;;;;;;;;;20.50;63.20;;;;;;1546113;75;1588;-60
2023/01/27 12:23:52;;;;;;;;;;;20.50;63.10;;;;;;1546128;75;1839;-61
2023/01/27 12:25:55;;;;;;;;;;;20.50;63.20;;;;;;1541401;71;227879;-73
2023/01/27 12:27:57;;;;;;;;;;;20.50;63.30;;;;;;1540483;75;630;-68
2023/01/27 12:30:00;;;;;;;;;;;20.40;63.20;;;;;;1535024;75;642;-73
2023/01/27 12:32:02;;;;;;;;;;;20.40;63.30;;;;;;1538940;75;1940;-69
2023/01/27 12:34:05;;;;;;;;;;;20.50;63.20;;;;;;1537378;75;1410;-70
2023/01/27 12:36:11;;;;;;;;;;;20.50;63.10;;;;;;1534155;75;1135;-71
2023/01/27 12:38:13;;;;;;;;;;;20.50;62.90;;;;;;1547416;74;634;-70
2023/01/27 12:40:19;;;;;;;;;;;20.50;62.80;;;;;;1549815;75;671;-69
2023/01/27 12:42:40;;;;;;;;;;;20.50;62.80;;;;;;1547867;73;678;-71
2023/01/27 12:44:42;;;;;;;;;;;20.50;62.80;;;;;;1535972;75;1122;-69
2023/01/27 12:46:57;;;;;;;;;;;20.50;62.60;;;;;;1544720;75;656;-70
2023/01/27 12:49:03;;;;;;;;;;;20.50;62.60;;;;;;1533519;75;1516;-69
2023/01/27 12:51:06;;;;;;;;;;;20.50;62.50;;;;;;1538801;75;1923;-69